sensor_id;sensor_type;location;lat;lon;timestamp;P1;durP1;ratioP1;P2;durP2;ratioP2
10851;SDS011;5479;52.046;6.314;2022-09-29T00:00:34;12.90;;;11.07;;
10851;SDS011;5479;52.046;6.314;2022-09-29T00:03:03;12.63;;;11.33;;
10851;SDS011;5479;52.046;6.314;2022-09-29T00:05:32;12.23;;;10.93;;
10851;SDS011;5479;52.046;6.314;2022-09-29T00:08:00;13.13;;;11.73;;
10851;SDS011;5479;52.046;6.314;2022-09-29T00:10:28;12.70;;;11.33;;
10851;SDS011;5479;52.046;6.314;2022-09-29T00:12:56;12.60;;;11.13;;
10851;SDS011;5479;52.046;6.314;2022-09-29T00:15:24;12.47;;;11.17;;
10851;SDS011;5479;52.046;6.314;2022-09-29T00:17:52;13.20;;;11.30;;
10851;SDS011;5479;52.046;6.314;2022-09-29T00:20:21;13.13;;;11.80;;
10851;SDS011;5479;52.046;6.314;2022-09-29T00:22:49;12.03;;;10.73;;
10851;SDS011;5479;52.046;6.314;2022-09-29T00:25:17;12.57;;;11.00;;
10851;SDS011;5479;52.046;6.314;2022-09-29T00:27:45;12.73;;;11.30;;
10851;SDS011;5479;52.046;6.314;2022-09-29T00:30:14;13.20;;;11.43;;
10851;SDS011;5479;52.046;6.314;2022-09-29T00:32:42;12.37;;;11.07;;
10851;SDS011;5479;52.046;6.314;2022-09-29T00:35:10;12.17;;;10.87;;
10851;SDS011;5479;52.046;6.314;2022-09-29T00:37:39;10.93;;;9.80;;
10851;SDS011;5479;52.046;6.314;2022-09-29T00:40:07;11.73;;;10.50;;
10851;SDS011;5479;52.046;6.314;2022-09-29T00:42:36;11.03;;;9.33;;
10851;SDS011;5479;52.046;6.314;2022-09-29T00:45:05;8.97;;;8.00;;
10851;SDS011;5479;52.046;6.314;2022-09-29T00:47:41;11.47;;;8.50;;
10851;SDS011;5479;52.046;6.314;2022-09-29T00:50:12;9.67;;;8.27;;
10851;SDS011;5479;52.046;6.314;2022-09-29T00:52:45;10.87;;;8.67;;
10851;SDS011;5479;52.046;6.314;2022-09-29T00:55:17;10.80;;;9.70;;
10851;SDS011;5479;52.046;6.314;2022-09-29T00:57:51;10.80;;;9.37;;
10851;SDS011;5479;52.046;6.314;2022-09-29T01:00:25;10.77;;;9.03;;
10851;SDS011;5479;52.046;6.314;2022-09-29T01:02:53;10.67;;;9.10;;
10851;SDS011;5479;52.046;6.314;2022-09-29T01:05:27;11.47;;;9.07;;
10851;SDS011;5479;52.046;6.314;2022-09-29T01:08:01;12.23;;;10.27;;
10851;SDS011;5479;52.046;6.314;2022-09-29T01:10:37;12.53;;;10.53;;
10851;SDS011;5479;52.046;6.314;2022-09-29T01:13:06;11.73;;;9.73;;
10851;SDS011;5479;52.046;6.314;2022-09-29T01:15:34;12.63;;;11.00;;
10851;SDS011;5479;52.046;6.314;2022-09-29T01:18:02;12.07;;;10.13;;
10851;SDS011;5479;52.046;6.314;2022-09-29T01:20:32;12.80;;;10.67;;
10851;SDS011;5479;52.046;6.314;2022-09-29T01:23:12;11.87;;;10.07;;
10851;SDS011;5479;52.046;6.314;2022-09-29T01:26:13;11.53;;;9.47;;
10851;SDS011;5479;52.046;6.314;2022-09-29T01:29:11;11.23;;;9.10;;
10851;SDS011;5479;52.046;6.314;2022-09-29T01:32:03;11.90;;;9.27;;
10851;SDS011;5479;52.046;6.314;2022-09-29T01:34:38;12.77;;;9.50;;
10851;SDS011;5479;52.046;6.314;2022-09-29T01:37:13;14.03;;;10.40;;
10851;SDS011;5479;52.046;6.314;2022-09-29T01:39:53;15.53;;;10.43;;
10851;SDS011;5479;52.046;6.314;2022-09-29T01:42:29;15.87;;;11.20;;
10851;SDS011;5479;52.046;6.314;2022-09-29T01:45:09;15.20;;;11.03;;
10851;SDS011;5479;52.046;6.314;2022-09-29T01:47:43;53.37;;;13.60;;
10851;SDS011;5479;52.046;6.314;2022-09-29T01:50:17;39.33;;;12.00;;
10851;SDS011;5479;52.046;6.314;2022-09-29T01:52:50;47.67;;;12.63;;
10851;SDS011;5479;52.046;6.314;2022-09-29T01:55:24;16.33;;;10.37;;
10851;SDS011;5479;52.046;6.314;2022-09-29T01:57:56;28.23;;;11.00;;
10851;SDS011;5479;52.046;6.314;2022-09-29T02:00:28;37.07;;;10.73;;
10851;SDS011;5479;52.046;6.314;2022-09-29T02:03:00;22.13;;;10.87;;
10851;SDS011;5479;52.046;6.314;2022-09-29T02:05:35;13.73;;;11.07;;
10851;SDS011;5479;52.046;6.314;2022-09-29T02:08:09;28.77;;;12.43;;
10851;SDS011;5479;52.046;6.314;2022-09-29T02:10:40;28.77;;;13.10;;
10851;SDS011;5479;52.046;6.314;2022-09-29T02:13:15;43.43;;;13.10;;
10851;SDS011;5479;52.046;6.314;2022-09-29T02:15:47;26.93;;;12.60;;
10851;SDS011;5479;52.046;6.314;2022-09-29T02:18:20;41.13;;;12.97;;
10851;SDS011;5479;52.046;6.314;2022-09-29T02:20:49;29.47;;;12.90;;
10851;SDS011;5479;52.046;6.314;2022-09-29T02:23:17;77.50;;;14.07;;
10851;SDS011;5479;52.046;6.314;2022-09-29T02:25:45;24.73;;;12.97;;
10851;SDS011;5479;52.046;6.314;2022-09-29T02:28:15;18.77;;;12.57;;
10851;SDS011;5479;52.046;6.314;2022-09-29T02:30:43;20.33;;;13.30;;
10851;SDS011;5479;52.046;6.314;2022-09-29T02:33:16;23.17;;;13.63;;
10851;SDS011;5479;52.046;6.314;2022-09-29T02:35:50;15.17;;;12.30;;
10851;SDS011;5479;52.046;6.314;2022-09-29T02:38:29;35.43;;;13.30;;
10851;SDS011;5479;52.046;6.314;2022-09-29T02:41:06;17.43;;;12.47;;
10851;SDS011;5479;52.046;6.314;2022-09-29T02:43:53;17.77;;;11.87;;
10851;SDS011;5479;52.046;6.314;2022-09-29T02:46:37;18.60;;;12.30;;
10851;SDS011;5479;52.046;6.314;2022-09-29T02:49:20;19.33;;;12.63;;
10851;SDS011;5479;52.046;6.314;2022-09-29T02:51:58;16.50;;;11.13;;
10851;SDS011;5479;52.046;6.314;2022-09-29T02:54:40;13.53;;;11.90;;
10851;SDS011;5479;52.046;6.314;2022-09-29T02:57:17;15.67;;;12.50;;
10851;SDS011;5479;52.046;6.314;2022-09-29T02:59:59;21.27;;;12.83;;
10851;SDS011;5479;52.046;6.314;2022-09-29T03:02:36;24.80;;;12.53;;
10851;SDS011;5479;52.046;6.314;2022-09-29T03:05:09;29.33;;;12.93;;
10851;SDS011;5479;52.046;6.314;2022-09-29T03:07:39;14.40;;;12.67;;
10851;SDS011;5479;52.046;6.314;2022-09-29T03:10:08;32.70;;;12.77;;
10851;SDS011;5479;52.046;6.314;2022-09-29T03:12:38;28.90;;;12.23;;
10851;SDS011;5479;52.046;6.314;2022-09-29T03:15:06;26.90;;;11.70;;
10851;SDS011;5479;52.046;6.314;2022-09-29T03:17:37;34.33;;;12.03;;
10851;SDS011;5479;52.046;6.314;2022-09-29T03:20:06;48.83;;;13.00;;
10851;SDS011;5479;52.046;6.314;2022-09-29T03:22:36;50.50;;;13.33;;
10851;SDS011;5479;52.046;6.314;2022-09-29T03:25:05;22.03;;;13.13;;
10851;SDS011;5479;52.046;6.314;2022-09-29T03:27:33;42.97;;;14.57;;
10851;SDS011;5479;52.046;6.314;2022-09-29T03:30:02;31.97;;;14.03;;
10851;SDS011;5479;52.046;6.314;2022-09-29T03:32:30;44.93;;;15.00;;
10851;SDS011;5479;52.046;6.314;2022-09-29T03:34:58;30.37;;;14.30;;
10851;SDS011;5479;52.046;6.314;2022-09-29T03:37:27;27.53;;;15.03;;
10851;SDS011;5479;52.046;6.314;2022-09-29T03:39:55;43.33;;;14.73;;
10851;SDS011;5479;52.046;6.314;2022-09-29T03:42:23;35.60;;;13.60;;
10851;SDS011;5479;52.046;6.314;2022-09-29T03:44:53;20.90;;;13.23;;
10851;SDS011;5479;52.046;6.314;2022-09-29T03:47:21;36.13;;;12.90;;
10851;SDS011;5479;52.046;6.314;2022-09-29T03:49:49;48.10;;;13.80;;
10851;SDS011;5479;52.046;6.314;2022-09-29T03:52:17;28.27;;;13.77;;
10851;SDS011;5479;52.046;6.314;2022-09-29T03:54:46;35.57;;;13.63;;
10851;SDS011;5479;52.046;6.314;2022-09-29T03:57:15;46.63;;;14.07;;
10851;SDS011;5479;52.046;6.314;2022-09-29T03:59:43;47.03;;;13.77;;
10851;SDS011;5479;52.046;6.314;2022-09-29T04:02:11;28.53;;;14.27;;
10851;SDS011;5479;52.046;6.314;2022-09-29T04:04:39;21.83;;;14.23;;
10851;SDS011;5479;52.046;6.314;2022-09-29T04:07:07;30.07;;;13.70;;
10851;SDS011;5479;52.046;6.314;2022-09-29T04:09:35;37.83;;;13.53;;
10851;SDS011;5479;52.046;6.314;2022-09-29T04:12:07;33.50;;;13.80;;
10851;SDS011;5479;52.046;6.314;2022-09-29T04:14:36;34.33;;;13.33;;
10851;SDS011;5479;52.046;6.314;2022-09-29T04:17:04;37.90;;;15.20;;
10851;SDS011;5479;52.046;6.314;2022-09-29T04:19:40;21.80;;;14.17;;
10851;SDS011;5479;52.046;6.314;2022-09-29T04:22:08;39.47;;;15.40;;
10851;SDS011;5479;52.046;6.314;2022-09-29T04:24:37;20.20;;;15.00;;
10851;SDS011;5479;52.046;6.314;2022-09-29T04:27:05;30.80;;;14.93;;
10851;SDS011;5479;52.046;6.314;2022-09-29T04:29:34;25.87;;;13.73;;
10851;SDS011;5479;52.046;6.314;2022-09-29T04:32:02;19.70;;;13.37;;
10851;SDS011;5479;52.046;6.314;2022-09-29T04:34:31;24.03;;;14.33;;
10851;SDS011;5479;52.046;6.314;2022-09-29T04:36:59;20.37;;;14.90;;
10851;SDS011;5479;52.046;6.314;2022-09-29T04:39:27;22.70;;;15.13;;
10851;SDS011;5479;52.046;6.314;2022-09-29T04:41:55;24.83;;;14.73;;
10851;SDS011;5479;52.046;6.314;2022-09-29T04:44:23;15.33;;;13.50;;
10851;SDS011;5479;52.046;6.314;2022-09-29T04:46:52;19.47;;;13.97;;
10851;SDS011;5479;52.046;6.314;2022-09-29T04:49:20;28.53;;;14.30;;
10851;SDS011;5479;52.046;6.314;2022-09-29T04:51:48;26.13;;;13.20;;
10851;SDS011;5479;52.046;6.314;2022-09-29T04:54:16;15.60;;;13.13;;
10851;SDS011;5479;52.046;6.314;2022-09-29T04:56:46;29.73;;;14.47;;
10851;SDS011;5479;52.046;6.314;2022-09-29T04:59:15;21.20;;;13.87;;
10851;SDS011;5479;52.046;6.314;2022-09-29T05:01:43;23.13;;;12.67;;
10851;SDS011;5479;52.046;6.314;2022-09-29T05:04:13;23.73;;;11.80;;
10851;SDS011;5479;52.046;6.314;2022-09-29T05:06:41;28.67;;;13.40;;
10851;SDS011;5479;52.046;6.314;2022-09-29T05:09:08;16.73;;;12.57;;
10851;SDS011;5479;52.046;6.314;2022-09-29T05:11:36;24.13;;;13.57;;
10851;SDS011;5479;52.046;6.314;2022-09-29T05:14:05;22.17;;;13.33;;
10851;SDS011;5479;52.046;6.314;2022-09-29T05:16:33;19.07;;;12.67;;
10851;SDS011;5479;52.046;6.314;2022-09-29T05:19:00;19.70;;;12.33;;
10851;SDS011;5479;52.046;6.314;2022-09-29T05:21:30;23.87;;;12.50;;
10851;SDS011;5479;52.046;6.314;2022-09-29T05:23:58;29.03;;;12.83;;
10851;SDS011;5479;52.046;6.314;2022-09-29T05:26:26;21.17;;;14.13;;
10851;SDS011;5479;52.046;6.314;2022-09-29T05:28:54;31.50;;;13.10;;
10851;SDS011;5479;52.046;6.314;2022-09-29T05:31:22;22.27;;;12.83;;
10851;SDS011;5479;52.046;6.314;2022-09-29T05:33:49;24.97;;;12.97;;
10851;SDS011;5479;52.046;6.314;2022-09-29T05:36:17;33.60;;;12.63;;
10851;SDS011;5479;52.046;6.314;2022-09-29T05:38:47;34.00;;;14.40;;
10851;SDS011;5479;52.046;6.314;2022-09-29T05:41:15;26.67;;;12.83;;
10851;SDS011;5479;52.046;6.314;2022-09-29T05:43:48;20.47;;;13.43;;
10851;SDS011;5479;52.046;6.314;2022-09-29T05:46:16;31.07;;;14.80;;
10851;SDS011;5479;52.046;6.314;2022-09-29T05:48:44;24.67;;;13.80;;
10851;SDS011;5479;52.046;6.314;2022-09-29T05:51:13;32.90;;;14.10;;
10851;SDS011;5479;52.046;6.314;2022-09-29T05:53:43;27.30;;;15.17;;
10851;SDS011;5479;52.046;6.314;2022-09-29T05:56:12;20.80;;;14.50;;
10851;SDS011;5479;52.046;6.314;2022-09-29T05:58:42;28.97;;;15.40;;
10851;SDS011;5479;52.046;6.314;2022-09-29T06:01:10;19.20;;;14.63;;
10851;SDS011;5479;52.046;6.314;2022-09-29T06:03:40;25.33;;;15.40;;
10851;SDS011;5479;52.046;6.314;2022-09-29T06:06:10;19.90;;;14.83;;
10851;SDS011;5479;52.046;6.314;2022-09-29T06:08:39;27.33;;;15.10;;
10851;SDS011;5479;52.046;6.314;2022-09-29T06:11:09;18.90;;;15.67;;
10851;SDS011;5479;52.046;6.314;2022-09-29T06:13:40;33.33;;;16.87;;
10851;SDS011;5479;52.046;6.314;2022-09-29T06:16:10;36.93;;;14.83;;
10851;SDS011;5479;52.046;6.314;2022-09-29T06:18:38;29.30;;;14.30;;
10851;SDS011;5479;52.046;6.314;2022-09-29T06:21:07;23.43;;;14.60;;
10851;SDS011;5479;52.046;6.314;2022-09-29T06:23:37;19.90;;;14.40;;
10851;SDS011;5479;52.046;6.314;2022-09-29T06:26:06;16.53;;;14.23;;
10851;SDS011;5479;52.046;6.314;2022-09-29T06:28:35;16.90;;;14.03;;
10851;SDS011;5479;52.046;6.314;2022-09-29T06:31:08;21.13;;;14.17;;
10851;SDS011;5479;52.046;6.314;2022-09-29T06:33:38;18.03;;;13.47;;
10851;SDS011;5479;52.046;6.314;2022-09-29T06:36:07;35.23;;;14.37;;
10851;SDS011;5479;52.046;6.314;2022-09-29T06:38:58;37.10;;;13.57;;
10851;SDS011;5479;52.046;6.314;2022-09-29T06:41:26;40.10;;;13.60;;
10851;SDS011;5479;52.046;6.314;2022-09-29T06:43:55;16.43;;;12.20;;
10851;SDS011;5479;52.046;6.314;2022-09-29T06:46:24;16.50;;;12.83;;
10851;SDS011;5479;52.046;6.314;2022-09-29T06:48:53;34.60;;;13.17;;
10851;SDS011;5479;52.046;6.314;2022-09-29T06:51:22;19.63;;;12.97;;
10851;SDS011;5479;52.046;6.314;2022-09-29T06:53:50;14.53;;;13.13;;
10851;SDS011;5479;52.046;6.314;2022-09-29T06:56:18;45.73;;;14.47;;
10851;SDS011;5479;52.046;6.314;2022-09-29T06:58:47;18.67;;;13.40;;
10851;SDS011;5479;52.046;6.314;2022-09-29T07:01:15;56.80;;;15.03;;
10851;SDS011;5479;52.046;6.314;2022-09-29T07:03:44;20.37;;;13.10;;
10851;SDS011;5479;52.046;6.314;2022-09-29T07:06:12;14.57;;;13.03;;
10851;SDS011;5479;52.046;6.314;2022-09-29T07:08:40;27.47;;;13.90;;
10851;SDS011;5479;52.046;6.314;2022-09-29T07:11:08;31.30;;;14.03;;
10851;SDS011;5479;52.046;6.314;2022-09-29T07:13:37;23.97;;;14.03;;
10851;SDS011;5479;52.046;6.314;2022-09-29T07:16:05;30.40;;;14.50;;
10851;SDS011;5479;52.046;6.314;2022-09-29T07:18:35;37.00;;;14.40;;
10851;SDS011;5479;52.046;6.314;2022-09-29T07:21:06;23.27;;;15.03;;
10851;SDS011;5479;52.046;6.314;2022-09-29T07:23:35;21.90;;;15.33;;
10851;SDS011;5479;52.046;6.314;2022-09-29T07:26:05;20.67;;;15.93;;
10851;SDS011;5479;52.046;6.314;2022-09-29T07:28:36;27.57;;;16.87;;
10851;SDS011;5479;52.046;6.314;2022-09-29T07:31:05;19.17;;;16.20;;
10851;SDS011;5479;52.046;6.314;2022-09-29T07:33:35;22.70;;;16.90;;
10851;SDS011;5479;52.046;6.314;2022-09-29T07:36:08;23.33;;;15.87;;
10851;SDS011;5479;52.046;6.314;2022-09-29T07:38:36;20.93;;;15.10;;
10851;SDS011;5479;52.046;6.314;2022-09-29T07:41:04;18.10;;;16.20;;
10851;SDS011;5479;52.046;6.314;2022-09-29T07:43:35;17.87;;;15.90;;
10851;SDS011;5479;52.046;6.314;2022-09-29T07:46:04;18.23;;;16.00;;
10851;SDS011;5479;52.046;6.314;2022-09-29T07:48:32;17.90;;;14.97;;
10851;SDS011;5479;52.046;6.314;2022-09-29T07:51:02;18.60;;;16.57;;
10851;SDS011;5479;52.046;6.314;2022-09-29T07:53:33;17.40;;;15.53;;
10851;SDS011;5479;52.046;6.314;2022-09-29T07:56:02;18.43;;;15.43;;
10851;SDS011;5479;52.046;6.314;2022-09-29T07:58:31;23.67;;;16.10;;
10851;SDS011;5479;52.046;6.314;2022-09-29T08:01:00;18.03;;;16.07;;
10851;SDS011;5479;52.046;6.314;2022-09-29T08:03:30;20.03;;;16.33;;
10851;SDS011;5479;52.046;6.314;2022-09-29T08:05:58;22.03;;;16.40;;
10851;SDS011;5479;52.046;6.314;2022-09-29T08:08:28;18.77;;;15.80;;
10851;SDS011;5479;52.046;6.314;2022-09-29T08:11:02;20.43;;;16.00;;
10851;SDS011;5479;52.046;6.314;2022-09-29T08:13:32;20.97;;;15.53;;
10851;SDS011;5479;52.046;6.314;2022-09-29T08:16:01;18.47;;;16.13;;
10851;SDS011;5479;52.046;6.314;2022-09-29T08:18:31;17.87;;;16.07;;
10851;SDS011;5479;52.046;6.314;2022-09-29T08:21:00;19.63;;;16.23;;
10851;SDS011;5479;52.046;6.314;2022-09-29T08:23:29;18.33;;;16.43;;
10851;SDS011;5479;52.046;6.314;2022-09-29T08:25:58;18.20;;;16.40;;
10851;SDS011;5479;52.046;6.314;2022-09-29T08:28:30;20.20;;;17.23;;
10851;SDS011;5479;52.046;6.314;2022-09-29T08:31:02;19.93;;;17.73;;
10851;SDS011;5479;52.046;6.314;2022-09-29T08:33:31;21.30;;;18.20;;
10851;SDS011;5479;52.046;6.314;2022-09-29T08:36:00;20.27;;;18.27;;
10851;SDS011;5479;52.046;6.314;2022-09-29T08:38:29;20.00;;;18.00;;
10851;SDS011;5479;52.046;6.314;2022-09-29T08:41:01;18.87;;;17.07;;
10851;SDS011;5479;52.046;6.314;2022-09-29T08:43:32;20.37;;;18.30;;
10851;SDS011;5479;52.046;6.314;2022-09-29T08:46:04;21.37;;;19.27;;
10851;SDS011;5479;52.046;6.314;2022-09-29T08:48:39;20.00;;;18.10;;
10851;SDS011;5479;52.046;6.314;2022-09-29T08:51:12;19.83;;;17.83;;
10851;SDS011;5479;52.046;6.314;2022-09-29T08:53:48;18.50;;;16.60;;
10851;SDS011;5479;52.046;6.314;2022-09-29T08:56:19;18.70;;;16.63;;
10851;SDS011;5479;52.046;6.314;2022-09-29T08:58:48;18.70;;;16.90;;
10851;SDS011;5479;52.046;6.314;2022-09-29T09:01:20;18.10;;;16.20;;
10851;SDS011;5479;52.046;6.314;2022-09-29T09:04:04;20.00;;;17.97;;
10851;SDS011;5479;52.046;6.314;2022-09-29T09:06:44;16.53;;;14.93;;
10851;SDS011;5479;52.046;6.314;2022-09-29T09:09:33;14.97;;;13.47;;
10851;SDS011;5479;52.046;6.314;2022-09-29T09:12:16;15.15;;;12.60;;
10851;SDS011;5479;52.046;6.314;2022-09-29T09:15:07;13.32;;;11.93;;
10851;SDS011;5479;52.046;6.314;2022-09-29T09:17:50;11.93;;;10.80;;
10851;SDS011;5479;52.046;6.314;2022-09-29T09:20:31;11.30;;;10.10;;
10851;SDS011;5479;52.046;6.314;2022-09-29T09:23:04;12.77;;;11.48;;
10851;SDS011;5479;52.046;6.314;2022-09-29T09:25:41;11.40;;;10.20;;
10851;SDS011;5479;52.046;6.314;2022-09-29T09:28:16;11.27;;;10.10;;
10851;SDS011;5479;52.046;6.314;2022-09-29T09:30:48;9.93;;;8.98;;
10851;SDS011;5479;52.046;6.314;2022-09-29T09:33:22;12.43;;;11.23;;
10851;SDS011;5479;52.046;6.314;2022-09-29T09:35:57;10.40;;;9.38;;
10851;SDS011;5479;52.046;6.314;2022-09-29T09:38:35;10.00;;;9.00;;
10851;SDS011;5479;52.046;6.314;2022-09-29T09:41:12;12.38;;;11.13;;
10851;SDS011;5479;52.046;6.314;2022-09-29T09:43:42;10.55;;;9.55;;
10851;SDS011;5479;52.046;6.314;2022-09-29T09:46:19;11.77;;;10.60;;
10851;SDS011;5479;52.046;6.314;2022-09-29T09:48:56;10.32;;;9.32;;
10851;SDS011;5479;52.046;6.314;2022-09-29T09:51:31;12.13;;;10.93;;
10851;SDS011;5479;52.046;6.314;2022-09-29T09:54:08;11.32;;;10.23;;
10851;SDS011;5479;52.046;6.314;2022-09-29T09:56:44;12.88;;;11.73;;
10851;SDS011;5479;52.046;6.314;2022-09-29T09:59:31;13.90;;;12.25;;
10851;SDS011;5479;52.046;6.314;2022-09-29T10:02:13;11.10;;;9.90;;
10851;SDS011;5479;52.046;6.314;2022-09-29T10:04:44;12.27;;;9.38;;
10851;SDS011;5479;52.046;6.314;2022-09-29T10:07:15;11.70;;;10.60;;
10851;SDS011;5479;52.046;6.314;2022-09-29T10:09:43;11.25;;;10.25;;
10851;SDS011;5479;52.046;6.314;2022-09-29T10:12:13;10.68;;;9.20;;
10851;SDS011;5479;52.046;6.314;2022-09-29T10:14:44;10.30;;;9.20;;
10851;SDS011;5479;52.046;6.314;2022-09-29T10:17:20;10.35;;;9.35;;
10851;SDS011;5479;52.046;6.314;2022-09-29T10:19:52;8.52;;;7.32;;
10851;SDS011;5479;52.046;6.314;2022-09-29T10:22:22;9.80;;;8.45;;
10851;SDS011;5479;52.046;6.314;2022-09-29T10:24:52;8.57;;;7.50;;
10851;SDS011;5479;52.046;6.314;2022-09-29T10:27:24;8.65;;;7.25;;
10851;SDS011;5479;52.046;6.314;2022-09-29T10:29:52;9.13;;;7.80;;
10851;SDS011;5479;52.046;6.314;2022-09-29T10:32:26;8.65;;;7.40;;
10851;SDS011;5479;52.046;6.314;2022-09-29T10:35:03;9.85;;;8.88;;
10851;SDS011;5479;52.046;6.314;2022-09-29T10:37:35;8.68;;;7.72;;
10851;SDS011;5479;52.046;6.314;2022-09-29T10:40:13;9.45;;;7.47;;
10851;SDS011;5479;52.046;6.314;2022-09-29T10:42:44;8.80;;;7.90;;
10851;SDS011;5479;52.046;6.314;2022-09-29T10:45:15;8.27;;;7.47;;
10851;SDS011;5479;52.046;6.314;2022-09-29T10:47:46;7.75;;;6.95;;
10851;SDS011;5479;52.046;6.314;2022-09-29T10:50:16;7.60;;;6.15;;
10851;SDS011;5479;52.046;6.314;2022-09-29T10:52:47;10.32;;;7.25;;
10851;SDS011;5479;52.046;6.314;2022-09-29T10:55:19;7.57;;;6.80;;
10851;SDS011;5479;52.046;6.314;2022-09-29T10:57:49;8.55;;;6.63;;
10851;SDS011;5479;52.046;6.314;2022-09-29T11:00:25;7.05;;;5.93;;
10851;SDS011;5479;52.046;6.314;2022-09-29T11:02:59;9.27;;;6.95;;
10851;SDS011;5479;52.046;6.314;2022-09-29T11:05:32;6.32;;;5.28;;
10851;SDS011;5479;52.046;6.314;2022-09-29T11:08:03;6.78;;;5.95;;
10851;SDS011;5479;52.046;6.314;2022-09-29T11:10:32;7.32;;;5.68;;
10851;SDS011;5479;52.046;6.314;2022-09-29T11:13:14;8.60;;;5.90;;
10851;SDS011;5479;52.046;6.314;2022-09-29T11:16:04;8.52;;;6.03;;
10851;SDS011;5479;52.046;6.314;2022-09-29T11:18:40;7.50;;;6.30;;
10851;SDS011;5479;52.046;6.314;2022-09-29T11:24:37;7.60;;;5.53;;
10851;SDS011;5479;52.046;6.314;2022-09-29T11:28:16;6.13;;;4.85;;
10851;SDS011;5479;52.046;6.314;2022-09-29T11:31:05;6.68;;;5.35;;
10851;SDS011;5479;52.046;6.314;2022-09-29T11:33:47;6.65;;;5.10;;
10851;SDS011;5479;52.046;6.314;2022-09-29T11:36:25;6.32;;;4.38;;
10851;SDS011;5479;52.046;6.314;2022-09-29T11:39:01;5.72;;;4.43;;
10851;SDS011;5479;52.046;6.314;2022-09-29T11:41:43;6.97;;;5.40;;
10851;SDS011;5479;52.046;6.314;2022-09-29T11:44:31;7.18;;;5.50;;
10851;SDS011;5479;52.046;6.314;2022-09-29T11:47:13;6.80;;;5.78;;
10851;SDS011;5479;52.046;6.314;2022-09-29T11:49:57;9.15;;;6.22;;
10851;SDS011;5479;52.046;6.314;2022-09-29T11:52:43;6.82;;;5.50;;
10851;SDS011;5479;52.046;6.314;2022-09-29T11:55:26;5.60;;;4.00;;
10851;SDS011;5479;52.046;6.314;2022-09-29T11:58:02;6.57;;;5.03;;
10851;SDS011;5479;52.046;6.314;2022-09-29T12:00:44;6.88;;;4.28;;
10851;SDS011;5479;52.046;6.314;2022-09-29T12:03:33;6.05;;;3.30;;
10851;SDS011;5479;52.046;6.314;2022-09-29T12:06:15;5.18;;;3.78;;
10851;SDS011;5479;52.046;6.314;2022-09-29T12:09:06;5.80;;;4.60;;
10851;SDS011;5479;52.046;6.314;2022-09-29T12:11:52;5.35;;;3.83;;
10851;SDS011;5479;52.046;6.314;2022-09-29T12:14:29;5.88;;;4.13;;
10851;SDS011;5479;52.046;6.314;2022-09-29T12:17:09;6.35;;;4.43;;
10851;SDS011;5479;52.046;6.314;2022-09-29T12:19:40;5.40;;;3.70;;
10851;SDS011;5479;52.046;6.314;2022-09-29T12:22:13;6.10;;;4.47;;
10851;SDS011;5479;52.046;6.314;2022-09-29T12:24:45;7.60;;;4.45;;
10851;SDS011;5479;52.046;6.314;2022-09-29T12:27:18;6.93;;;4.50;;
10851;SDS011;5479;52.046;6.314;2022-09-29T12:29:51;6.80;;;5.38;;
10851;SDS011;5479;52.046;6.314;2022-09-29T12:32:25;5.78;;;4.88;;
10851;SDS011;5479;52.046;6.314;2022-09-29T12:35:00;6.05;;;4.88;;
10851;SDS011;5479;52.046;6.314;2022-09-29T12:37:33;6.50;;;4.50;;
10851;SDS011;5479;52.046;6.314;2022-09-29T12:40:09;5.55;;;3.90;;
10851;SDS011;5479;52.046;6.314;2022-09-29T12:42:50;8.15;;;5.00;;
10851;SDS011;5479;52.046;6.314;2022-09-29T12:45:30;5.30;;;3.75;;
10851;SDS011;5479;52.046;6.314;2022-09-29T12:48:09;6.38;;;4.70;;
10851;SDS011;5479;52.046;6.314;2022-09-29T12:50:47;6.63;;;4.90;;
10851;SDS011;5479;52.046;6.314;2022-09-29T12:53:19;6.32;;;4.72;;
10851;SDS011;5479;52.046;6.314;2022-09-29T12:55:53;7.50;;;5.47;;
10851;SDS011;5479;52.046;6.314;2022-09-29T12:58:31;13.37;;;5.80;;
10851;SDS011;5479;52.046;6.314;2022-09-29T13:01:12;8.97;;;5.80;;
10851;SDS011;5479;52.046;6.314;2022-09-29T13:06:49;6.93;;;4.90;;
10851;SDS011;5479;52.046;6.314;2022-09-29T13:09:42;6.97;;;5.13;;
10851;SDS011;5479;52.046;6.314;2022-09-29T13:12:32;6.27;;;5.03;;
10851;SDS011;5479;52.046;6.314;2022-09-29T13:15:12;6.73;;;4.97;;
10851;SDS011;5479;52.046;6.314;2022-09-29T13:18:06;7.30;;;5.40;;
10851;SDS011;5479;52.046;6.314;2022-09-29T13:21:03;5.87;;;4.77;;
10851;SDS011;5479;52.046;6.314;2022-09-29T13:26:56;6.10;;;4.18;;
10851;SDS011;5479;52.046;6.314;2022-09-29T13:29:39;6.33;;;4.23;;
10851;SDS011;5479;52.046;6.314;2022-09-29T13:32:13;5.77;;;4.10;;
10851;SDS011;5479;52.046;6.314;2022-09-29T13:34:45;5.80;;;3.90;;
10851;SDS011;5479;52.046;6.314;2022-09-29T13:37:16;6.28;;;3.85;;
10851;SDS011;5479;52.046;6.314;2022-09-29T13:39:52;6.00;;;3.97;;
10851;SDS011;5479;52.046;6.314;2022-09-29T13:42:35;6.20;;;3.47;;
10851;SDS011;5479;52.046;6.314;2022-09-29T13:45:34;5.13;;;3.63;;
10851;SDS011;5479;52.046;6.314;2022-09-29T13:54:12;6.25;;;4.20;;
10851;SDS011;5479;52.046;6.314;2022-09-29T13:56:48;8.50;;;4.28;;
10851;SDS011;5479;52.046;6.314;2022-09-29T13:59:21;5.65;;;4.03;;
10851;SDS011;5479;52.046;6.314;2022-09-29T14:01:50;5.57;;;4.00;;
10851;SDS011;5479;52.046;6.314;2022-09-29T14:04:32;5.55;;;3.15;;
10851;SDS011;5479;52.046;6.314;2022-09-29T14:07:44;5.20;;;2.88;;
10851;SDS011;5479;52.046;6.314;2022-09-29T14:10:20;4.18;;;3.05;;
10851;SDS011;5479;52.046;6.314;2022-09-29T14:12:53;6.63;;;3.50;;
10851;SDS011;5479;52.046;6.314;2022-09-29T14:15:26;6.15;;;3.53;;
10851;SDS011;5479;52.046;6.314;2022-09-29T14:18:00;5.03;;;3.27;;
10851;SDS011;5479;52.046;6.314;2022-09-29T14:20:36;5.97;;;3.72;;
10851;SDS011;5479;52.046;6.314;2022-09-29T14:23:07;4.85;;;3.38;;
10851;SDS011;5479;52.046;6.314;2022-09-29T14:28:31;4.43;;;2.77;;
10851;SDS011;5479;52.046;6.314;2022-09-29T14:31:08;4.63;;;2.70;;
10851;SDS011;5479;52.046;6.314;2022-09-29T14:33:46;4.78;;;3.13;;
10851;SDS011;5479;52.046;6.314;2022-09-29T14:36:17;6.03;;;3.70;;
10851;SDS011;5479;52.046;6.314;2022-09-29T14:38:49;5.78;;;3.42;;
10851;SDS011;5479;52.046;6.314;2022-09-29T14:41:23;4.30;;;2.90;;
10851;SDS011;5479;52.046;6.314;2022-09-29T14:43:53;4.37;;;2.87;;
10851;SDS011;5479;52.046;6.314;2022-09-29T14:46:34;4.00;;;2.70;;
10851;SDS011;5479;52.046;6.314;2022-09-29T14:49:36;4.53;;;2.90;;
10851;SDS011;5479;52.046;6.314;2022-09-29T14:52:36;4.30;;;2.50;;
10851;SDS011;5479;52.046;6.314;2022-09-29T14:55:20;4.30;;;2.80;;
10851;SDS011;5479;52.046;6.314;2022-09-29T15:00:55;5.77;;;2.97;;
10851;SDS011;5479;52.046;6.314;2022-09-29T15:03:36;4.80;;;3.20;;
10851;SDS011;5479;52.046;6.314;2022-09-29T15:06:14;5.33;;;3.20;;
10851;SDS011;5479;52.046;6.314;2022-09-29T15:08:51;7.47;;;3.27;;
10851;SDS011;5479;52.046;6.314;2022-09-29T15:11:27;5.17;;;3.17;;
10851;SDS011;5479;52.046;6.314;2022-09-29T15:14:16;4.30;;;2.80;;
10851;SDS011;5479;52.046;6.314;2022-09-29T15:16:52;5.13;;;3.30;;
10851;SDS011;5479;52.046;6.314;2022-09-29T15:19:40;6.07;;;3.23;;
10851;SDS011;5479;52.046;6.314;2022-09-29T15:22:21;4.93;;;3.30;;
10851;SDS011;5479;52.046;6.314;2022-09-29T15:25:15;4.30;;;2.70;;
10851;SDS011;5479;52.046;6.314;2022-09-29T15:27:51;5.33;;;3.20;;
10851;SDS011;5479;52.046;6.314;2022-09-29T15:30:21;4.77;;;2.80;;
10851;SDS011;5479;52.046;6.314;2022-09-29T15:32:50;5.00;;;3.20;;
10851;SDS011;5479;52.046;6.314;2022-09-29T15:35:20;5.40;;;3.20;;
10851;SDS011;5479;52.046;6.314;2022-09-29T15:37:54;5.17;;;3.10;;
10851;SDS011;5479;52.046;6.314;2022-09-29T15:40:25;5.63;;;3.00;;
10851;SDS011;5479;52.046;6.314;2022-09-29T15:42:55;5.43;;;3.00;;